createdAt,value
2022-09-01T00:01:50.464Z,18.00
2022-09-01T00:04:22.331Z,18.00
2022-09-01T00:06:50.045Z,18.00
2022-09-01T00:09:19.535Z,18.00
2022-09-01T00:11:50.917Z,17.90
2022-09-01T00:14:29.546Z,17.90
2022-09-01T00:17:01.563Z,17.90
2022-09-01T00:19:29.789Z,17.80
2022-09-01T00:21:57.254Z,17.80
2022-09-01T00:24:26.433Z,17.80
2022-09-01T00:26:54.927Z,17.70
2022-09-01T00:29:22.937Z,17.70
2022-09-01T00:31:50.925Z,17.70
2022-09-01T00:34:18.276Z,17.70
2022-09-01T00:36:45.395Z,17.70
2022-09-01T00:39:14.668Z,17.70
2022-09-01T00:41:45.062Z,17.70
2022-09-01T00:44:19.070Z,17.70
2022-09-01T00:46:55.075Z,17.70
2022-09-01T00:49:46.572Z,17.70
2022-09-01T00:52:22.306Z,17.70
2022-09-01T00:54:58.289Z,17.70
2022-09-01T00:57:25.983Z,17.70
2022-09-01T01:00:00.854Z,17.60
2022-09-01T01:02:27.976Z,17.60
2022-09-01T01:04:56.198Z,17.60
2022-09-01T01:07:24.760Z,17.50
2022-09-01T01:09:52.059Z,17.60
2022-09-01T01:12:19.664Z,17.60
2022-09-01T01:14:52.196Z,17.60
2022-09-01T01:17:21.760Z,17.50
2022-09-01T01:20:08.710Z,17.50
2022-09-01T01:23:05.823Z,17.50
2022-09-01T01:25:35.464Z,17.50
2022-09-01T01:28:21.128Z,17.50
2022-09-01T01:30:53.060Z,17.40
2022-09-01T01:33:23.305Z,17.40
2022-09-01T01:35:52.073Z,17.40
2022-09-01T01:38:22.995Z,17.40
2022-09-01T01:40:51.983Z,17.30
2022-09-01T01:43:23.248Z,17.30
2022-09-01T01:45:53.203Z,17.20
2022-09-01T01:48:24.083Z,17.20
2022-09-01T01:50:55.526Z,17.20
2022-09-01T01:53:22.935Z,17.10
2022-09-01T01:55:50.520Z,17.10
2022-09-01T01:58:22.426Z,17.10
2022-09-01T02:00:51.454Z,17.10
2022-09-01T02:03:22.155Z,17.00
2022-09-01T02:05:52.084Z,17.00
2022-09-01T02:08:22.119Z,17.00
2022-09-01T02:10:54.766Z,16.90
2022-09-01T02:13:26.604Z,16.90
2022-09-01T02:15:56.124Z,16.90
2022-09-01T02:18:28.679Z,16.90
2022-09-01T02:20:59.046Z,16.90
2022-09-01T02:23:26.267Z,16.90
2022-09-01T02:26:15.641Z,16.80
2022-09-01T02:28:45.559Z,16.80
2022-09-01T02:31:13.331Z,16.80
2022-09-01T02:33:45.791Z,16.80
2022-09-01T02:36:16.054Z,16.80
2022-09-01T02:38:46.817Z,16.80
2022-09-01T02:41:23.850Z,16.70
2022-09-01T02:43:51.377Z,16.70
2022-09-01T02:46:24.546Z,16.70
2022-09-01T02:48:53.229Z,16.60
2022-09-01T02:51:25.760Z,16.60
2022-09-01T02:53:54.013Z,16.60
2022-09-01T02:56:27.667Z,16.60
2022-09-01T02:58:55.978Z,16.60
2022-09-01T03:01:29.413Z,16.60
2022-09-01T03:04:00.194Z,16.50
2022-09-01T03:06:28.316Z,16.50
2022-09-01T03:09:00.397Z,16.50
2022-09-01T03:11:30.352Z,16.50
2022-09-01T03:13:57.446Z,16.50
2022-09-01T03:16:24.534Z,16.50
2022-09-01T03:18:52.289Z,16.40
2022-09-01T03:21:21.045Z,16.40
2022-09-01T03:23:49.876Z,16.40
2022-09-01T03:26:19.576Z,16.40
2022-09-01T03:28:47.345Z,16.40
2022-09-01T03:31:15.124Z,16.30
2022-09-01T03:33:42.696Z,16.40
2022-09-01T03:36:15.442Z,16.40
2022-09-01T03:38:44.243Z,16.30
2022-09-01T03:41:13.433Z,16.30
2022-09-01T03:43:47.117Z,16.20
2022-09-01T03:46:22.187Z,16.20
2022-09-01T03:48:55.733Z,16.20
2022-09-01T03:51:23.803Z,16.20
2022-09-01T03:53:57.604Z,16.20
2022-09-01T03:56:28.083Z,16.10
2022-09-01T03:58:56.975Z,16.10
2022-09-01T04:01:25.589Z,16.10
2022-09-01T04:03:53.158Z,16.10
2022-09-01T04:06:21.419Z,16.00
2022-09-01T04:08:48.515Z,16.00
2022-09-01T04:11:24.366Z,16.00
2022-09-01T04:13:52.469Z,16.00
2022-09-01T04:16:41.176Z,16.00
2022-09-01T04:19:21.185Z,16.00
2022-09-01T04:21:50.685Z,16.00
2022-09-01T04:24:19.269Z,15.90
2022-09-01T04:26:49.794Z,15.90
2022-09-01T04:29:27.586Z,15.80
2022-09-01T04:32:03.905Z,15.80
2022-09-01T04:34:43.205Z,15.80
2022-09-01T04:37:18.314Z,15.80
2022-09-01T04:39:56.308Z,15.80
2022-09-01T04:42:27.403Z,15.80
2022-09-01T04:44:57.802Z,15.80
2022-09-01T04:47:35.730Z,15.80
2022-09-01T04:50:13.196Z,15.80
2022-09-01T04:52:42.355Z,15.80
2022-09-01T04:55:18.002Z,15.80
2022-09-01T04:57:47.828Z,15.80
2022-09-01T05:00:23.644Z,15.80
2022-09-01T05:03:01.311Z,15.80
2022-09-01T05:05:28.363Z,15.80
2022-09-01T05:07:55.689Z,15.80
2022-09-01T05:10:29.327Z,15.80
2022-09-01T05:12:57.322Z,15.70
2022-09-01T05:15:24.432Z,15.80
2022-09-01T05:17:53.116Z,15.90
2022-09-01T05:20:21.714Z,15.90
2022-09-01T05:22:48.790Z,15.80
2022-09-01T05:25:15.906Z,15.80
2022-09-01T05:27:49.888Z,15.80
2022-09-01T05:30:18.750Z,15.80
2022-09-01T05:32:49.288Z,15.80
2022-09-01T05:35:16.573Z,15.80
2022-09-01T05:37:43.674Z,15.90
2022-09-01T05:40:16.496Z,15.90
2022-09-01T05:42:44.805Z,15.90
2022-09-01T05:45:12.256Z,15.90
2022-09-01T05:47:41.023Z,15.90
2022-09-01T05:50:14.354Z,16.00
2022-09-01T05:52:44.635Z,16.00
2022-09-01T05:55:11.794Z,16.00
2022-09-01T05:57:40.373Z,16.00
2022-09-01T06:00:13.499Z,16.10
2022-09-01T06:02:43.160Z,16.10
2022-09-01T06:05:11.664Z,16.10
2022-09-01T06:07:41.039Z,16.20
2022-09-01T06:10:08.664Z,16.20
2022-09-01T06:12:35.683Z,16.30
2022-09-01T06:15:02.721Z,16.30
2022-09-01T06:17:31.998Z,16.30
2022-09-01T06:20:11.120Z,16.40
2022-09-01T06:22:38.991Z,16.40
2022-09-01T06:25:08.582Z,16.40
2022-09-01T06:27:44.559Z,16.50
2022-09-01T06:30:23.076Z,16.70
2022-09-01T06:32:51.835Z,16.80
2022-09-01T06:35:19.340Z,16.90
2022-09-01T06:37:48.629Z,17.00
2022-09-01T06:40:19.713Z,17.10
2022-09-01T06:42:48.670Z,17.10
2022-09-01T06:45:17.767Z,17.20
2022-09-01T06:47:45.705Z,17.30
2022-09-01T06:51:14.857Z,17.40
2022-09-01T06:55:56.461Z,17.50
2022-09-01T06:58:23.623Z,17.60
2022-09-01T07:00:51.914Z,17.70
2022-09-01T07:03:20.226Z,17.80
2022-09-01T07:06:00.883Z,17.90
2022-09-01T07:08:28.873Z,17.90
2022-09-01T07:16:52.090Z,18.20
2022-09-01T07:19:20.399Z,18.30
2022-09-01T07:24:35.113Z,18.50
2022-09-01T07:27:09.574Z,18.60
2022-09-01T07:29:39.413Z,18.60
2022-09-01T07:34:57.415Z,18.80
2022-09-01T07:43:22.533Z,19.00
2022-09-01T07:45:59.485Z,19.10
2022-09-01T07:48:37.162Z,19.20
2022-09-01T07:51:36.073Z,19.20
2022-09-01T07:54:04.615Z,19.30
2022-09-01T07:56:34.208Z,19.40
2022-09-01T07:59:03.653Z,19.40
2022-09-01T08:01:30.785Z,19.40
2022-09-01T08:04:00.543Z,19.50
2022-09-01T08:06:37.783Z,19.50
2022-09-01T08:09:11.557Z,19.60
2022-09-01T08:12:01.116Z,19.60
2022-09-01T08:14:26.621Z,19.60
2022-09-01T08:16:53.842Z,19.70
2022-09-01T08:19:21.269Z,19.80
2022-09-01T08:21:48.741Z,19.90
2022-09-01T08:24:16.023Z,20.00
2022-09-01T08:26:43.078Z,20.10
2022-09-01T08:29:10.506Z,20.20
2022-09-01T08:31:37.527Z,20.20
2022-09-01T08:34:07.462Z,20.30
2022-09-01T08:36:35.515Z,20.30
2022-09-01T08:39:02.668Z,20.30
2022-09-01T08:41:35.248Z,20.40
2022-09-01T08:44:11.567Z,20.40
2022-09-01T08:46:42.365Z,20.50
2022-09-01T08:49:26.224Z,20.70
2022-09-01T08:52:08.213Z,20.70
2022-09-01T08:54:49.913Z,20.90
2022-09-01T08:57:30.104Z,21.00
2022-09-01T08:59:57.663Z,21.10
2022-09-01T09:02:27.975Z,21.20
2022-09-01T09:05:36.188Z,21.40
2022-09-01T09:08:17.131Z,21.60
2022-09-01T09:11:08.975Z,21.70
2022-09-01T09:13:59.594Z,21.80
2022-09-01T09:16:34.628Z,21.90
2022-09-01T09:19:11.139Z,22.20
2022-09-01T09:21:42.404Z,22.50
2022-09-01T09:24:22.698Z,22.70
2022-09-01T09:26:55.755Z,22.90
2022-09-01T09:29:23.168Z,23.20
2022-09-01T09:32:03.817Z,23.60
2022-09-01T09:34:33.388Z,23.90
2022-09-01T09:37:30.010Z,24.40
2022-09-01T09:40:16.119Z,24.80
2022-09-01T09:42:54.445Z,25.30
2022-09-01T09:45:27.787Z,25.90
2022-09-01T09:47:56.975Z,26.40
2022-09-01T09:50:29.675Z,26.80
2022-09-01T09:53:29.727Z,27.20
2022-09-01T09:55:58.656Z,27.50
2022-09-01T09:58:35.512Z,27.60
2022-09-01T10:01:07.586Z,27.50
2022-09-01T10:03:45.500Z,27.30
2022-09-01T10:06:29.307Z,27.20
2022-09-01T10:08:56.900Z,27.00
2022-09-01T10:11:35.516Z,27.00
2022-09-01T10:14:07.094Z,27.20
2022-09-01T10:16:37.832Z,27.30
2022-09-01T10:19:12.606Z,27.40
2022-09-01T10:21:47.872Z,27.40
2022-09-01T10:24:22.428Z,27.00
2022-09-01T10:26:56.355Z,27.20
2022-09-01T10:29:35.183Z,27.30
2022-09-01T10:32:36.523Z,28.00
2022-09-01T10:35:02.567Z,29.00
2022-09-01T10:37:31.158Z,30.20
2022-09-01T10:40:13.325Z,31.20
2022-09-01T10:42:45.278Z,32.10
2022-09-01T10:45:43.066Z,34.00
2022-09-01T10:48:30.839Z,36.30
2022-09-01T10:51:29.022Z,36.00
2022-09-01T10:54:05.633Z,35.90
2022-09-01T10:56:51.853Z,36.70
2022-09-01T10:59:35.937Z,37.80
2022-09-01T11:02:36.868Z,40.10
2022-09-01T11:05:04.950Z,39.90
2022-09-01T11:07:59.820Z,39.70
2022-09-01T11:10:43.583Z,41.20
2022-09-01T11:13:28.416Z,41.70
2022-09-01T11:15:55.548Z,38.90
2022-09-01T11:18:31.500Z,37.50
2022-09-01T11:21:25.715Z,36.10
2022-09-01T11:24:31.459Z,35.00
2022-09-01T11:26:58.935Z,34.80
2022-09-01T11:29:59.128Z,37.00
2022-09-01T11:32:32.554Z,36.80
2022-09-01T11:35:03.416Z,35.80
2022-09-01T11:37:33.255Z,34.50
2022-09-01T11:40:05.063Z,33.10
2022-09-01T11:42:45.855Z,32.30
2022-09-01T11:45:21.486Z,31.60
2022-09-01T11:48:11.570Z,31.00
2022-09-01T11:50:41.352Z,30.60
2022-09-01T11:53:10.800Z,30.30
2022-09-01T11:55:43.545Z,29.40
2022-09-01T11:58:29.094Z,29.70
2022-09-01T12:01:11.194Z,29.80
2022-09-01T12:03:38.407Z,30.00
2022-09-01T12:06:09.157Z,29.70
2022-09-01T12:08:42.811Z,30.30
2022-09-01T12:11:21.052Z,31.90
2022-09-01T12:14:07.715Z,33.90
2022-09-01T12:16:42.538Z,35.60
2022-09-01T12:19:27.755Z,35.00
2022-09-01T12:22:04.329Z,34.20
2022-09-01T12:24:35.695Z,33.50
2022-09-01T12:27:03.377Z,33.00
2022-09-01T12:29:32.399Z,33.10
2022-09-01T12:32:01.688Z,32.70
2022-09-01T12:34:38.293Z,32.30
2022-09-01T12:37:12.569Z,31.70
2022-09-01T12:39:46.063Z,31.40
2022-09-01T12:42:19.406Z,31.40
2022-09-01T12:44:59.088Z,31.20
2022-09-01T12:47:35.915Z,30.70
2022-09-01T12:50:07.531Z,30.20
2022-09-01T12:52:45.102Z,29.70
2022-09-01T12:58:12.770Z,28.90
2022-09-01T13:01:08.782Z,28.70
2022-09-01T13:03:43.721Z,28.40
2022-09-01T13:06:11.125Z,28.30
2022-09-01T13:08:38.269Z,28.00
2022-09-01T13:11:13.793Z,27.90
2022-09-01T13:13:40.997Z,27.80
2022-09-01T13:16:13.038Z,27.60
2022-09-01T13:21:30.816Z,27.40
2022-09-01T13:23:58.143Z,27.10
2022-09-01T13:26:26.449Z,26.90
2022-09-01T13:28:54.077Z,26.90
2022-09-01T13:31:29.100Z,26.80
2022-09-01T13:34:20.467Z,26.80
2022-09-01T13:36:47.257Z,26.30
2022-09-01T13:39:17.293Z,26.30
2022-09-01T13:41:47.329Z,26.20
2022-09-01T13:44:14.544Z,26.20
2022-09-01T13:50:05.597Z,26.20
2022-09-01T13:52:16.103Z,26.30
2022-09-01T13:54:46.181Z,26.20
2022-09-01T13:57:15.065Z,26.20
2022-09-01T13:59:42.039Z,26.20
2022-09-01T14:02:09.064Z,26.30
2022-09-01T14:04:36.079Z,26.40
2022-09-01T14:07:03.359Z,26.40
2022-09-01T14:09:30.369Z,26.40
2022-09-01T14:11:57.364Z,26.50
2022-09-01T14:14:24.528Z,26.50
2022-09-01T14:16:51.668Z,26.50
2022-09-01T14:19:19.071Z,26.60
2022-09-01T14:21:47.364Z,26.60
2022-09-01T14:24:15.303Z,26.70
2022-09-01T14:26:42.478Z,26.70
2022-09-01T14:29:09.589Z,26.50
2022-09-01T14:31:37.966Z,26.50
2022-09-01T14:34:05.165Z,26.40
2022-09-01T14:36:32.136Z,26.40
2022-09-01T14:38:59.880Z,26.40
2022-09-01T14:41:27.383Z,26.40
2022-09-01T14:44:00.945Z,26.50
2022-09-01T14:46:31.121Z,26.40
2022-09-01T14:48:58.153Z,26.30
2022-09-01T14:52:10.357Z,26.30
2022-09-01T14:54:15.623Z,26.30
2022-09-01T14:56:42.764Z,26.30
2022-09-01T14:59:11.028Z,26.20
2022-09-01T15:01:38.073Z,26.20
2022-09-01T15:04:05.111Z,26.20
2022-09-01T15:06:32.299Z,26.20
2022-09-01T15:09:00.040Z,26.30
2022-09-01T15:11:28.526Z,26.30
2022-09-01T15:13:55.637Z,26.20
2022-09-01T15:16:28.426Z,26.10
2022-09-01T15:18:55.690Z,26.20
2022-09-01T15:21:30.829Z,26.20
2022-09-01T15:23:58.183Z,26.20
2022-09-01T15:26:26.275Z,26.20
2022-09-01T15:28:54.072Z,26.30
2022-09-01T15:31:32.292Z,26.40
2022-09-01T15:34:02.576Z,26.50
2022-09-01T15:36:31.420Z,26.50
2022-09-01T15:38:59.128Z,26.50
2022-09-01T15:41:30.191Z,26.50
2022-09-01T15:43:58.213Z,26.50
2022-09-01T15:46:32.907Z,26.60
2022-09-01T15:49:05.354Z,26.60
2022-09-01T15:51:38.276Z,26.70
2022-09-01T15:54:17.644Z,26.80
2022-09-01T15:56:46.821Z,26.90
2022-09-01T15:59:14.752Z,27.00
2022-09-01T16:01:45.188Z,26.90
2022-09-01T16:04:21.776Z,26.90
2022-09-01T16:06:52.730Z,26.70
2022-09-01T16:09:21.302Z,26.90
2022-09-01T16:11:48.642Z,27.00
2022-09-01T16:14:16.157Z,26.90
2022-09-01T16:16:52.098Z,26.80
2022-09-01T16:19:36.952Z,26.60
2022-09-01T16:22:03.967Z,26.50
2022-09-01T16:24:32.409Z,26.60
2022-09-01T16:27:00.468Z,26.70
2022-09-01T16:29:51.987Z,26.80
2022-09-01T16:32:21.488Z,26.80
2022-09-01T16:34:49.071Z,26.80
2022-09-01T16:37:27.278Z,26.70
2022-09-01T16:40:04.012Z,26.60
2022-09-01T16:42:49.661Z,26.50
2022-09-01T16:45:54.754Z,26.40
2022-09-01T16:48:52.976Z,26.20
2022-09-01T16:51:33.848Z,26.10
2022-09-01T16:54:09.888Z,26.10
2022-09-01T16:57:00.878Z,25.90
2022-09-01T16:59:33.736Z,25.80
2022-09-01T17:02:38.766Z,25.60
2022-09-01T17:05:46.920Z,25.50
2022-09-01T17:09:01.572Z,25.40
2022-09-01T17:11:53.992Z,25.30
2022-09-01T17:14:37.173Z,25.20
2022-09-01T17:17:09.821Z,25.00
2022-09-01T17:19:40.799Z,25.00
2022-09-01T17:22:12.581Z,24.90
2022-09-01T17:24:42.821Z,24.80
2022-09-01T17:27:32.980Z,24.70
2022-09-01T17:30:01.357Z,24.60
2022-09-01T17:32:31.870Z,24.50
2022-09-01T17:35:19.361Z,24.40
2022-09-01T17:37:56.449Z,24.30
2022-09-01T17:40:53.102Z,24.20
2022-09-01T17:43:46.091Z,24.10
2022-09-01T17:46:34.648Z,24.00
2022-09-01T17:49:15.152Z,23.90
2022-09-01T17:51:54.668Z,23.80
2022-09-01T17:54:33.417Z,23.60
2022-09-01T17:57:39.144Z,23.50
2022-09-01T18:00:28.303Z,23.40
2022-09-01T18:03:23.012Z,23.40
2022-09-01T18:06:09.482Z,23.30
2022-09-01T18:08:49.035Z,23.20
2022-09-01T18:11:25.896Z,23.20
2022-09-01T18:14:15.945Z,23.10
2022-09-01T18:17:04.393Z,23.00
2022-09-01T18:19:41.021Z,22.90
2022-09-01T18:22:16.535Z,22.80
2022-09-01T18:25:02.578Z,22.80
2022-09-01T18:27:33.369Z,22.70
2022-09-01T18:30:01.511Z,22.60
2022-09-01T18:33:05.245Z,22.60
2022-09-01T18:35:40.286Z,22.50
2022-09-01T18:38:40.766Z,22.40
2022-09-01T18:41:27.543Z,22.40
2022-09-01T18:44:28.352Z,22.30
2022-09-01T18:46:55.284Z,22.30
2022-09-01T18:49:37.505Z,22.20
2022-09-01T18:52:35.257Z,22.20
2022-09-01T18:55:02.251Z,22.10
2022-09-01T18:57:38.895Z,22.00
2022-09-01T19:00:19.435Z,22.00
2022-09-01T19:03:24.577Z,21.90
2022-09-01T19:06:06.602Z,21.90
2022-09-01T19:11:18.364Z,21.80
2022-09-01T19:13:54.948Z,21.80
2022-09-01T19:16:49.873Z,21.60
2022-09-01T19:19:22.589Z,21.70
2022-09-01T19:21:54.788Z,21.70
2022-09-01T19:24:32.417Z,21.60
2022-09-01T19:27:10.044Z,21.60
2022-09-01T19:30:04.550Z,21.60
2022-09-01T19:32:35.370Z,21.60
2022-09-01T19:35:06.094Z,21.50
2022-09-01T19:37:33.211Z,21.50
2022-09-01T19:40:01.135Z,21.40
2022-09-01T19:42:56.927Z,21.30
2022-09-01T19:45:26.958Z,21.30
2022-09-01T19:48:05.887Z,21.20
2022-09-01T19:50:39.800Z,21.10
2022-09-01T19:53:37.515Z,21.10
2022-09-01T19:56:14.977Z,20.90
2022-09-01T19:58:56.681Z,20.80
2022-09-01T20:01:48.523Z,20.70
2022-09-01T20:04:41.883Z,20.70
2022-09-01T20:07:43.278Z,20.60
2022-09-01T20:10:25.842Z,20.50
2022-09-01T20:13:20.544Z,20.50
2022-09-01T20:15:58.116Z,20.40
2022-09-01T20:18:31.343Z,20.20
2022-09-01T20:21:18.919Z,20.10
2022-09-01T20:23:57.748Z,20.10
2022-09-01T20:26:54.194Z,20.00
2022-09-01T20:30:01.568Z,19.90
2022-09-01T20:33:01.972Z,19.90
2022-09-01T20:35:39.761Z,19.90
2022-09-01T20:38:42.124Z,19.90
2022-09-01T20:41:18.872Z,19.90
2022-09-01T20:43:51.469Z,19.90
2022-09-01T20:46:19.982Z,19.90
2022-09-01T20:48:48.101Z,19.90
2022-09-01T20:51:21.363Z,19.90
2022-09-01T20:54:03.412Z,19.80
2022-09-01T20:56:48.549Z,19.80
2022-09-01T20:59:41.888Z,19.70
2022-09-01T21:02:46.598Z,19.70
2022-09-01T21:05:34.006Z,19.70
2022-09-01T21:08:32.942Z,19.60
2022-09-01T21:11:34.048Z,19.60
2022-09-01T21:14:24.982Z,19.60
2022-09-01T21:17:17.298Z,19.50
2022-09-01T21:20:09.390Z,19.50
2022-09-01T21:22:36.526Z,19.40
2022-09-01T21:25:04.422Z,19.40
2022-09-01T21:27:37.751Z,19.40
2022-09-01T21:30:09.606Z,19.30
2022-09-01T21:32:37.343Z,19.30
2022-09-01T21:35:07.644Z,19.20
2022-09-01T21:37:35.132Z,19.20
2022-09-01T21:40:02.496Z,19.20
2022-09-01T21:42:51.253Z,19.10
2022-09-01T21:45:19.646Z,19.10
2022-09-01T21:47:48.513Z,19.00
2022-09-01T21:50:17.164Z,19.00
2022-09-01T21:52:44.366Z,18.90
2022-09-01T21:55:12.307Z,18.90
2022-09-01T21:57:39.783Z,18.90
2022-09-01T22:00:20.546Z,18.80
2022-09-01T22:02:47.604Z,18.70
2022-09-01T22:05:15.004Z,18.70
2022-09-01T22:07:45.469Z,18.60
2022-09-01T22:10:18.022Z,18.60
2022-09-01T22:12:46.874Z,18.40
2022-09-01T22:15:17.503Z,18.30
2022-09-01T22:17:45.454Z,18.30
2022-09-01T22:20:15.487Z,18.20
2022-09-01T22:22:42.859Z,18.10
2022-09-01T22:25:14.492Z,18.00
2022-09-01T22:27:41.568Z,18.00
2022-09-01T22:30:10.017Z,18.00
2022-09-01T22:32:38.995Z,17.90
2022-09-01T22:35:08.559Z,17.90
2022-09-01T22:37:36.538Z,17.90
2022-09-01T22:40:05.249Z,17.90
2022-09-01T22:42:32.397Z,17.80
2022-09-01T22:44:59.734Z,17.80
2022-09-01T22:47:26.679Z,17.80
2022-09-01T22:49:56.581Z,17.70
2022-09-01T22:52:23.682Z,17.60
2022-09-01T22:54:52.008Z,17.60
2022-09-01T22:57:20.353Z,17.60
2022-09-01T22:59:47.513Z,17.50
2022-09-01T23:02:14.696Z,17.50
2022-09-01T23:04:42.639Z,17.50
2022-09-01T23:07:09.716Z,17.40
2022-09-01T23:09:36.762Z,17.40
2022-09-01T23:12:04.313Z,17.30
2022-09-01T23:14:31.340Z,17.40
2022-09-01T23:16:59.466Z,17.40
2022-09-01T23:19:26.530Z,17.30
2022-09-01T23:21:53.891Z,17.30
2022-09-01T23:24:21.403Z,17.30
2022-09-01T23:26:49.320Z,17.30
2022-09-01T23:29:17.031Z,17.20
2022-09-01T23:31:44.403Z,17.20
2022-09-01T23:34:13.334Z,17.10
2022-09-01T23:36:41.304Z,17.10
2022-09-01T23:39:08.901Z,17.10
2022-09-01T23:41:37.703Z,17.00
2022-09-01T23:44:07.044Z,17.00
2022-09-01T23:46:38.821Z,16.90
2022-09-01T23:49:06.240Z,16.90
2022-09-01T23:51:33.632Z,16.80
2022-09-01T23:54:00.837Z,16.80
2022-09-01T23:56:29.928Z,16.80
2022-09-01T23:58:58.338Z,16.70
